CYHU/YHU METAR and TAF weather

Enter ICAO airport designator
Station Type Date Time Source
CYHU METAR 2018/04/20 08:51 UTC NOAA

CYHU 200851Z AUTO 29007G16KT 1 3/4SM -SN OVC023 01/M02 A2997 RMK SLP151


Station Type Date Time Source
CYHU Decoded METAR 2018/04/20 08:51 UTC NOAA

Saint Hubert Airport , Canada (CYHU) 45-31N 073-25W
Apr 20, 2018 - 04:51 AM EDT / 2018.04.20 0851 UTC
Wind: from the WNW (290 degrees) at 8 MPH (7 KT) gusting to 18 MPH (16 KT):0
Visibility: 1 3/4 mile(s):0
Sky conditions: overcast
Weather: light snow
Temperature: 33 F (1 C)
Windchill: 26 F (-3 C):1
Dew Point: 28 F (-2 C)
Relative Humidity: 80%
Pressure (altimeter): 29.97 in. Hg (1014 hPa)
ob: CYHU 200851Z AUTO 29007G16KT 1 3/4SM -SN OVC023 01/M02 A2997 RMK SLP151
cycle: 9

Station Type Date Time Source
CYHU TAF 2018/04/20 08:56 UTC NOAA

TAF
AMD CYHU 200850Z 2008/2106 30012KT 6SM -SN OVC030
TEMPO 2008/2012 2SM -SHSN OVC020 PROB40 2008/2011 1SM -SHSN VV009
FM201200 30012KT P6SM -SHSN BKN030
BECMG 2013/2015 30012G22KT
FM201500 30012G22KT P6SM -SHRA BKN030
BECMG 2016/2018 31015G25KT
FM202300 31012G22KT P6SM BKN050
RMK FCST BASED ON AUTO OBS. NXT FCST BY 201200Z


Example: see airport list